createdAt,value
2018-06-02T00:00:37.659Z,102325.21
2018-06-02T00:03:05.185Z,102315.05
2018-06-02T00:05:32.712Z,102310.98
2018-06-02T00:08:00.711Z,102363.81
2018-06-02T00:10:28.220Z,102383.13
2018-06-02T00:12:55.730Z,102354.67
2018-06-02T00:15:23.264Z,102392.27
2018-06-02T00:17:50.773Z,102369.91
2018-06-02T00:20:18.325Z,102347.56
2018-06-02T00:22:45.849Z,102402.42
2018-06-02T00:25:13.366Z,102414.62
2018-06-02T00:27:40.898Z,102411.57
2018-06-02T00:30:08.406Z,102466.44
2018-06-02T00:32:35.943Z,102436.97
2018-06-02T00:35:03.474Z,102411.57
2018-06-02T00:37:30.992Z,102426.81
2018-06-02T00:39:59.047Z,102475.58
2018-06-02T00:42:26.562Z,102453.23
2018-06-02T00:44:54.090Z,102440.02
2018-06-02T00:47:21.623Z,102463.38
2018-06-02T00:49:49.150Z,102477.61
2018-06-02T00:52:16.650Z,102458.30
2018-06-02T00:54:56.470Z,102458.30
2018-06-02T00:57:23.974Z,102501.99
2018-06-02T00:59:51.492Z,102519.27
2018-06-02T01:02:19.027Z,102535.52
2018-06-02T01:04:46.564Z,102507.08
2018-06-02T01:07:14.079Z,102538.57
2018-06-02T01:09:41.613Z,102516.22
2018-06-02T01:12:09.126Z,102548.73
2018-06-02T01:14:36.668Z,102516.22
2018-06-02T01:17:04.187Z,102482.69
2018-06-02T01:19:31.714Z,102531.45
2018-06-02T01:21:59.237Z,102510.12
2018-06-02T01:24:26.746Z,102540.61
2018-06-02T01:26:55.235Z,102513.17
2018-06-02T01:29:22.738Z,102538.57
2018-06-02T01:31:50.486Z,102552.80
2018-06-02T01:34:17.994Z,102576.16
2018-06-02T01:36:45.512Z,102594.45
2018-06-02T01:39:13.047Z,102577.18
2018-06-02T01:41:40.764Z,102666.59
2018-06-02T01:44:08.455Z,102639.16
2018-06-02T01:46:35.958Z,102620.88
2018-06-02T01:49:03.481Z,102656.44
2018-06-02T01:51:31.015Z,102682.85
2018-06-02T01:53:58.526Z,102644.23
2018-06-02T01:56:26.043Z,102687.93
2018-06-02T01:58:53.584Z,102673.70
2018-06-02T02:01:21.258Z,102579.22
2018-06-02T02:03:48.771Z,102703.17
2018-06-02T02:06:16.279Z,102722.48
2018-06-02T02:08:44.182Z,102745.84
2018-06-02T02:11:12.877Z,102733.66
2018-06-02T02:13:40.400Z,102718.41
2018-06-02T02:16:07.948Z,102786.49
2018-06-02T02:18:35.455Z,102762.11
2018-06-02T02:21:03.094Z,102765.16
2018-06-02T02:23:30.607Z,102719.43
2018-06-02T02:25:58.124Z,102715.36
2018-06-02T02:28:25.670Z,102758.04
2018-06-02T02:30:53.174Z,102688.95
2018-06-02T02:33:20.680Z,102736.70
2018-06-02T02:35:48.215Z,102707.23
2018-06-02T02:38:15.753Z,102765.16
2018-06-02T02:40:43.266Z,102748.90
2018-06-02T02:43:10.790Z,102730.61
2018-06-02T02:45:38.298Z,102747.88
2018-06-02T02:48:05.974Z,102784.45
2018-06-02T02:50:33.496Z,102709.27
2018-06-02T02:53:01.003Z,102741.78
2018-06-02T02:55:28.791Z,102684.88
2018-06-02T02:57:56.303Z,102726.55
2018-06-02T03:00:23.842Z,102772.27
2018-06-02T03:02:51.375Z,102718.41
2018-06-02T03:05:18.895Z,102710.28
2018-06-02T03:07:46.431Z,102734.67
2018-06-02T03:10:13.946Z,102714.34
2018-06-02T03:12:41.481Z,102763.13
2018-06-02T03:15:08.999Z,102731.63
2018-06-02T03:17:36.538Z,102701.14
2018-06-02T03:20:04.154Z,102619.85
2018-06-02T03:22:31.643Z,102661.52
2018-06-02T03:24:59.153Z,102640.17
2018-06-02T03:27:27.599Z,102680.82
2018-06-02T03:29:55.113Z,102601.56
2018-06-02T03:32:22.632Z,102630.02
2018-06-02T03:34:50.182Z,102568.03
2018-06-02T03:37:17.697Z,102660.50
2018-06-02T03:39:45.211Z,102637.13
2018-06-02T03:42:12.742Z,102609.70
2018-06-02T03:44:40.242Z,102636.11
2018-06-02T03:47:07.775Z,102620.88
2018-06-02T03:49:35.273Z,102656.44
2018-06-02T03:52:02.811Z,102617.82
2018-06-02T03:54:30.314Z,102674.72
2018-06-02T03:56:57.846Z,102627.98
2018-06-02T03:59:25.403Z,102615.79
2018-06-02T04:01:52.932Z,102625.95
2018-06-02T04:04:20.462Z,102595.47
2018-06-02T04:06:48.422Z,102587.34
2018-06-02T04:09:15.939Z,102676.75
2018-06-02T04:11:43.460Z,102630.02
2018-06-02T04:14:10.990Z,102624.94
2018-06-02T04:16:38.494Z,102575.15
2018-06-02T04:19:06.035Z,102538.57
2018-06-02T04:21:33.546Z,102568.03
2018-06-02T04:24:01.540Z,102585.31
2018-06-02T04:26:29.061Z,102597.50
2018-06-02T04:28:56.588Z,102548.73
2018-06-02T04:31:24.120Z,102562.95
2018-06-02T04:33:51.626Z,102557.88
2018-06-02T04:36:19.154Z,102601.56
2018-06-02T04:38:46.666Z,102566.00
2018-06-02T04:41:14.192Z,102542.64
2018-06-02T04:43:41.791Z,102536.54
2018-06-02T04:46:09.321Z,102540.61
2018-06-02T04:48:36.970Z,102528.41
2018-06-02T04:51:04.506Z,102525.36
2018-06-02T04:53:32.075Z,102518.25
2018-06-02T04:55:59.583Z,102490.81
2018-06-02T04:58:27.117Z,102496.91
2018-06-02T05:00:54.646Z,102509.11
2018-06-02T05:03:22.194Z,102522.31
2018-06-02T05:05:49.733Z,102526.38
2018-06-02T05:08:17.262Z,102501.99
2018-06-02T05:10:44.775Z,102517.23
2018-06-02T05:13:12.323Z,102505.04
2018-06-02T05:15:39.833Z,102452.21
2018-06-02T05:18:07.366Z,102484.72
2018-06-02T05:20:34.894Z,102457.29
2018-06-02T05:23:02.402Z,102445.09
2018-06-02T05:25:30.053Z,102427.83
2018-06-02T05:27:57.563Z,102486.75
2018-06-02T05:30:25.087Z,102451.20
2018-06-02T05:32:52.619Z,102458.30
2018-06-02T05:35:20.134Z,102442.05
2018-06-02T05:37:48.134Z,102486.75
2018-06-02T05:40:15.646Z,102455.26
2018-06-02T05:42:43.157Z,102449.16
2018-06-02T05:45:10.716Z,102429.86
2018-06-02T05:47:38.252Z,102466.44
2018-06-02T05:50:05.772Z,102459.32
2018-06-02T05:52:33.306Z,102453.23
2018-06-02T05:55:00.813Z,102457.29
2018-06-02T05:57:28.354Z,102432.91
2018-06-02T05:59:55.936Z,102425.80
2018-06-02T06:02:23.442Z,102418.68
2018-06-02T06:04:50.979Z,102431.89
2018-06-02T06:07:18.496Z,102380.07
2018-06-02T06:09:46.466Z,102463.38
2018-06-02T06:12:13.979Z,102387.19
2018-06-02T06:14:41.491Z,102433.92
2018-06-02T06:17:09.027Z,102448.14
2018-06-02T06:19:36.631Z,102359.75
2018-06-02T06:22:04.121Z,102365.84
2018-06-02T06:24:31.626Z,102355.69
2018-06-02T06:26:59.346Z,102363.81
2018-06-02T06:29:26.808Z,102329.27
2018-06-02T06:31:54.310Z,102392.27
2018-06-02T06:34:22.005Z,102371.95
2018-06-02T06:36:49.518Z,102333.34
2018-06-02T06:39:17.050Z,102377.02
2018-06-02T06:41:44.603Z,102367.88
2018-06-02T06:44:12.116Z,102365.84
2018-06-02T06:46:39.618Z,102322.16
2018-06-02T06:49:07.334Z,102380.07
2018-06-02T06:51:34.847Z,102336.39
2018-06-02T06:54:02.355Z,102300.83
2018-06-02T06:56:29.901Z,102364.83
2018-06-02T06:58:57.449Z,102314.03
2018-06-02T07:01:24.986Z,102343.50
2018-06-02T07:03:52.523Z,102379.05
2018-06-02T07:06:20.056Z,102324.20
2018-06-02T07:08:47.592Z,102309.97
2018-06-02T07:11:15.135Z,102319.11
2018-06-02T07:13:42.646Z,102271.37
2018-06-02T07:16:10.207Z,102312.00
2018-06-02T07:18:37.719Z,102319.11
2018-06-02T07:21:05.241Z,102227.68
2018-06-02T07:23:32.811Z,102242.92
2018-06-02T07:26:00.319Z,102249.02
2018-06-02T07:28:27.896Z,102230.73
2018-06-02T07:30:55.779Z,102184.00
2018-06-02T07:33:24.227Z,102248.00
2018-06-02T07:35:51.734Z,102226.66
2018-06-02T07:38:19.261Z,102205.33
2018-06-02T07:40:46.766Z,102232.76
2018-06-02T07:43:14.330Z,102202.28
2018-06-02T07:45:41.848Z,102189.08
2018-06-02T07:48:09.363Z,102190.09
2018-06-02T07:50:36.890Z,102187.05
2018-06-02T07:53:04.423Z,102245.97
2018-06-02T07:55:31.959Z,102239.87
2018-06-02T07:57:59.474Z,102220.56
2018-06-02T08:00:27.020Z,102223.61
2018-06-02T08:02:54.548Z,102238.85
2018-06-02T08:05:22.084Z,102084.44
2018-06-02T08:07:49.596Z,102082.41
2018-06-02T08:10:17.258Z,102212.44
2018-06-02T08:12:44.774Z,102145.39
2018-06-02T08:15:12.299Z,102107.80
2018-06-02T08:17:39.966Z,102164.69
2018-06-02T08:20:07.483Z,102114.91
2018-06-02T08:22:34.993Z,102108.81
2018-06-02T08:25:02.526Z,102176.88
2018-06-02T08:27:30.071Z,102065.13
2018-06-02T08:29:57.591Z,102092.56
2018-06-02T08:32:25.086Z,102068.18
2018-06-02T08:34:52.800Z,102002.15
2018-06-02T08:37:20.311Z,102027.55
2018-06-02T08:39:47.824Z,102003.16
2018-06-02T08:42:15.354Z,102020.44
2018-06-02T08:44:42.961Z,101963.55
2018-06-02T08:47:10.488Z,101983.86
2018-06-02T08:49:37.990Z,101922.91
2018-06-02T08:52:05.895Z,101944.25
2018-06-02T08:54:33.404Z,101935.10
2018-06-02T08:57:00.922Z,101959.48
2018-06-02T08:59:28.455Z,101860.95
2018-06-02T09:01:55.962Z,101832.50
2018-06-02T09:04:23.511Z,101764.44
2018-06-02T09:06:51.024Z,101868.05
2018-06-02T09:09:18.536Z,102020.44
2018-06-02T09:11:46.067Z,101840.63
2018-06-02T09:14:13.566Z,101877.20
2018-06-02T09:16:41.133Z,101836.56
2018-06-02T09:19:08.639Z,101748.19
2018-06-02T09:21:36.138Z,101775.62
2018-06-02T09:24:03.668Z,101810.16
2018-06-02T09:26:31.176Z,101838.59
2018-06-02T09:28:58.703Z,101858.91
2018-06-02T09:31:26.223Z,101843.67
2018-06-02T09:33:53.750Z,101917.83
2018-06-02T09:36:21.255Z,101783.74
2018-06-02T09:38:48.980Z,101918.84
2018-06-02T09:41:16.483Z,101889.39
2018-06-02T09:43:43.996Z,101901.58
2018-06-02T09:46:11.521Z,101824.38
2018-06-02T09:48:39.042Z,101978.78
2018-06-02T09:51:06.586Z,101987.92
2018-06-02T09:53:34.115Z,101837.58
2018-06-02T09:56:01.620Z,101873.14
2018-06-02T09:58:29.146Z,101889.39
2018-06-02T10:00:56.651Z,101816.25
2018-06-02T10:03:24.307Z,101807.11
2018-06-02T10:05:51.818Z,101757.33
2018-06-02T10:08:19.331Z,101805.08
2018-06-02T10:10:46.867Z,101750.22
2018-06-02T10:13:14.382Z,101675.05
2018-06-02T10:15:42.229Z,101618.17
2018-06-02T10:18:09.729Z,101740.06
2018-06-02T10:20:37.244Z,101646.61
2018-06-02T10:23:04.977Z,101686.22
2018-06-02T10:25:32.485Z,101619.19
2018-06-02T10:28:00.001Z,101589.73
2018-06-02T10:30:27.582Z,101628.33
2018-06-02T10:32:55.096Z,101592.77
2018-06-02T10:35:22.603Z,101446.51
2018-06-02T10:37:50.174Z,101439.40
2018-06-02T10:40:17.687Z,101630.36
2018-06-02T10:42:45.188Z,101495.27
2018-06-02T10:45:13.142Z,101580.59
2018-06-02T10:47:40.641Z,101365.25
2018-06-02T10:50:08.141Z,101357.12
2018-06-02T10:52:35.662Z,101323.61
2018-06-02T10:55:03.162Z,101132.67
2018-06-02T10:57:31.747Z,101358.14
2018-06-02T10:59:59.252Z,101274.86
2018-06-02T11:02:26.746Z,101289.08
2018-06-02T11:04:54.278Z,101172.28
2018-06-02T11:07:21.797Z,101247.44
2018-06-02T11:09:49.811Z,101248.45
2018-06-02T11:12:17.354Z,101323.61
2018-06-02T11:14:44.839Z,101337.83
2018-06-02T11:17:12.491Z,101335.80
2018-06-02T11:19:39.986Z,101398.77
2018-06-02T11:22:07.497Z,101370.33
2018-06-02T11:24:35.135Z,101368.30
2018-06-02T11:27:02.638Z,101370.33
2018-06-02T11:29:30.150Z,101284.00
2018-06-02T11:31:57.673Z,101219.00
2018-06-02T11:34:25.195Z,101133.69
2018-06-02T11:36:53.104Z,101127.59
2018-06-02T11:39:20.612Z,100990.48
2018-06-02T11:41:48.118Z,101230.17
2018-06-02T11:44:15.652Z,101255.56
2018-06-02T11:46:43.210Z,101161.11
2018-06-02T11:49:10.706Z,100793.47
2018-06-02T11:51:38.211Z,100775.19
2018-06-02T11:54:05.911Z,100666.53
2018-06-02T11:56:33.421Z,100680.75
2018-06-02T11:59:00.934Z,100563.97
2018-06-02T12:01:28.449Z,100593.41
2018-06-02T12:03:56.107Z,100582.24
2018-06-02T12:06:23.609Z,100462.42
2018-06-02T12:08:51.120Z,100315.19
2018-06-02T12:11:18.679Z,100690.91
2018-06-02T12:13:46.200Z,100601.53
2018-06-02T12:16:13.697Z,100726.44
2018-06-02T12:18:41.223Z,100773.16
2018-06-02T12:21:08.733Z,100680.75
2018-06-02T12:23:36.312Z,100575.14
2018-06-02T12:26:03.806Z,100512.17
2018-06-02T12:28:31.305Z,100737.61
2018-06-02T12:30:59.007Z,100725.42
2018-06-02T12:33:26.515Z,100643.17
2018-06-02T12:35:54.018Z,100594.43
2018-06-02T12:38:21.926Z,100756.91
2018-06-02T12:40:49.431Z,100730.50
2018-06-02T12:43:16.941Z,100513.19
2018-06-02T12:45:44.621Z,100415.71
2018-06-02T12:48:12.131Z,100232.94
2018-06-02T12:50:39.662Z,100829.02
2018-06-02T12:53:07.177Z,100668.56
2018-06-02T12:55:34.693Z,100413.68
2018-06-02T12:58:02.185Z,100234.97
2018-06-02T13:00:29.711Z,100342.60
2018-06-02T13:02:57.247Z,100157.81
2018-06-02T13:05:24.842Z,100443.13
2018-06-02T13:07:52.384Z,100102.98
2018-06-02T13:10:19.903Z,100578.19
2018-06-02T13:12:47.537Z,100658.41
2018-06-02T13:15:15.033Z,100513.19
2018-06-02T13:17:42.547Z,100379.16
2018-06-02T13:20:10.261Z,100623.87
2018-06-02T13:22:37.774Z,100328.39
2018-06-02T13:25:05.270Z,99988.25
2018-06-02T13:27:32.834Z,99945.61
2018-06-02T13:30:00.335Z,100137.50
2018-06-02T13:32:27.831Z,100323.31
2018-06-02T13:34:55.354Z,100018.70
2018-06-02T13:37:22.854Z,100033.94
2018-06-02T13:39:50.374Z,99920.23
2018-06-02T13:42:18.066Z,100194.36
2018-06-02T13:44:45.566Z,100325.34
2018-06-02T13:47:13.067Z,100054.25
2018-06-02T13:49:40.595Z,100251.22
2018-06-02T13:52:08.113Z,100038.00
2018-06-02T13:54:35.614Z,100135.47
2018-06-02T13:57:03.132Z,99879.61
2018-06-02T13:59:30.626Z,99664.39
2018-06-02T14:01:58.137Z,99744.59
2018-06-02T14:04:25.624Z,99647.12
2018-06-02T14:06:53.170Z,99946.63
2018-06-02T14:09:20.677Z,99927.34
2018-06-02T14:11:48.184Z,100044.09
2018-06-02T14:14:15.719Z,99550.69
2018-06-02T14:16:43.228Z,99924.28
2018-06-02T14:19:10.741Z,99927.34
2018-06-02T14:21:38.276Z,99649.16
2018-06-02T14:24:05.775Z,99888.75
2018-06-02T14:26:33.293Z,100062.37
2018-06-02T14:29:00.848Z,100260.36
2018-06-02T14:31:28.349Z,100247.16
2018-06-02T14:33:55.846Z,100123.28
2018-06-02T14:36:23.384Z,100144.61
2018-06-02T14:38:50.885Z,99993.33
2018-06-02T14:41:18.541Z,99742.56
2018-06-02T14:43:46.042Z,100390.33
2018-06-02T14:46:13.546Z,100154.77
2018-06-02T14:48:41.061Z,100124.30
2018-06-02T14:51:08.852Z,100071.50
2018-06-02T14:53:36.359Z,100165.93
2018-06-02T14:56:03.862Z,99878.59
2018-06-02T14:58:31.458Z,100147.66
2018-06-02T15:00:58.963Z,100221.77
2018-06-02T15:03:26.490Z,99963.88
2018-06-02T15:05:53.982Z,99967.94
2018-06-02T15:08:21.496Z,99381.16
2018-06-02T15:10:49.030Z,99584.19
2018-06-02T15:13:16.558Z,99720.22
2018-06-02T15:15:44.063Z,99360.86
2018-06-02T15:18:11.730Z,99676.57
2018-06-02T15:20:39.225Z,99650.17
2018-06-02T15:23:06.718Z,99917.18
2018-06-02T15:25:34.229Z,99861.34
2018-06-02T15:28:02.230Z,99881.64
2018-06-02T15:30:29.730Z,99936.47
2018-06-02T15:32:57.225Z,100273.55
2018-06-02T15:35:25.274Z,100245.13
2018-06-02T15:37:52.785Z,100188.27
2018-06-02T15:40:20.285Z,100334.48
2018-06-02T15:42:47.805Z,100226.85
2018-06-02T15:45:15.326Z,100058.30
2018-06-02T15:47:43.023Z,100205.53
2018-06-02T15:50:10.679Z,100334.48
2018-06-02T15:52:38.182Z,100187.25
2018-06-02T15:55:05.734Z,100198.42
2018-06-02T15:57:33.250Z,100053.23
2018-06-02T16:00:00.749Z,100132.42
2018-06-02T16:02:28.271Z,100056.27
2018-06-02T16:04:55.786Z,99967.94
2018-06-02T16:07:23.314Z,99783.16
2018-06-02T16:09:50.839Z,99451.20
2018-06-02T16:12:18.342Z,99624.80
2018-06-02T16:14:45.865Z,100267.47
2018-06-02T16:17:13.597Z,100211.62
2018-06-02T16:19:41.108Z,100098.92
2018-06-02T16:22:08.612Z,100108.05
2018-06-02T16:24:36.135Z,100208.58
2018-06-02T16:27:03.649Z,99882.66
2018-06-02T16:29:31.147Z,99991.30
2018-06-02T16:31:58.669Z,100147.66
2018-06-02T16:34:26.170Z,100059.32
2018-06-02T16:36:53.697Z,100094.86
2018-06-02T16:39:21.194Z,99857.28
2018-06-02T16:41:48.685Z,99772.00
2018-06-02T16:44:16.206Z,100040.03
2018-06-02T16:46:43.715Z,100091.81
2018-06-02T16:49:11.347Z,99766.92
2018-06-02T16:51:38.837Z,99727.33
2018-06-02T16:54:06.334Z,99791.29
2018-06-02T16:56:33.849Z,99627.84
2018-06-02T16:59:01.359Z,99886.72
2018-06-02T17:01:28.877Z,99740.53
2018-06-02T17:03:56.382Z,100155.78
2018-06-02T17:06:24.351Z,100015.66
2018-06-02T17:08:51.857Z,100045.11
2018-06-02T17:11:19.354Z,99996.38
2018-06-02T17:13:46.874Z,100215.68
2018-06-02T17:16:14.385Z,100121.25
2018-06-02T17:18:41.906Z,100116.18
2018-06-02T17:21:09.411Z,100142.58
2018-06-02T17:23:36.941Z,100290.81
2018-06-02T17:26:04.441Z,100386.27
2018-06-02T17:28:32.097Z,100427.89
2018-06-02T17:30:59.598Z,100261.37
2018-06-02T17:33:27.100Z,100214.67
2018-06-02T17:35:54.630Z,100185.22
2018-06-02T17:38:22.126Z,100207.56
2018-06-02T17:40:50.190Z,100040.03
2018-06-02T17:43:17.761Z,99954.75
2018-06-02T17:45:45.270Z,100205.53
2018-06-02T17:48:12.787Z,99931.39
2018-06-02T17:50:40.290Z,100128.36
2018-06-02T17:53:07.940Z,100341.59
2018-06-02T17:55:35.438Z,100268.48
2018-06-02T17:58:03.000Z,100243.09
2018-06-02T18:00:30.498Z,100113.13
2018-06-02T18:02:58.003Z,100106.02
2018-06-02T18:05:25.571Z,100353.77
2018-06-02T18:07:53.077Z,100474.61
2018-06-02T18:10:20.587Z,100438.05
2018-06-02T18:12:48.142Z,100601.53
2018-06-02T18:15:15.637Z,100497.96
2018-06-02T18:17:43.142Z,100528.42
2018-06-02T18:20:11.031Z,100594.43
2018-06-02T18:22:38.533Z,100596.46
2018-06-02T18:25:06.039Z,100549.75
2018-06-02T18:27:33.563Z,100610.67
2018-06-02T18:30:01.102Z,100497.96
2018-06-02T18:32:28.607Z,100553.81
2018-06-02T18:34:56.474Z,100475.62
2018-06-02T18:37:23.978Z,100421.80
2018-06-02T18:39:51.482Z,100475.62
2018-06-02T18:42:19.126Z,100413.68
2018-06-02T18:44:46.654Z,100578.19
2018-06-02T18:47:14.166Z,100535.53
2018-06-02T18:49:41.813Z,100555.84
2018-06-02T18:52:09.317Z,100611.69
2018-06-02T18:54:36.809Z,100718.32
2018-06-02T18:57:04.326Z,100731.52
2018-06-02T18:59:32.253Z,100756.91
2018-06-02T19:01:59.754Z,100866.58
2018-06-02T19:04:27.254Z,100829.02
2018-06-02T19:06:54.802Z,100881.81
2018-06-02T19:09:22.315Z,100903.14
2018-06-02T19:11:49.826Z,100959.00
2018-06-02T19:14:17.853Z,100965.09
2018-06-02T19:16:45.354Z,101005.72
2018-06-02T19:19:12.862Z,101011.81
2018-06-02T19:21:40.380Z,101016.89
2018-06-02T19:24:07.902Z,101010.80
2018-06-02T19:26:35.466Z,101058.53
2018-06-02T19:29:02.966Z,101117.44
2018-06-02T19:31:30.470Z,101097.13
2018-06-02T19:33:58.010Z,101104.23
2018-06-02T19:36:25.522Z,101109.30
2018-06-02T19:38:53.033Z,101108.29
2018-06-02T19:41:20.559Z,101137.74
2018-06-02T19:43:48.063Z,101146.89
2018-06-02T19:46:15.591Z,101154.00
2018-06-02T19:48:43.094Z,101207.82
2018-06-02T19:51:10.615Z,101281.97
2018-06-02T19:53:38.320Z,101365.25
2018-06-02T19:56:05.830Z,101367.28
2018-06-02T19:58:33.398Z,101417.05
2018-06-02T20:01:00.900Z,101459.71
2018-06-02T20:03:28.402Z,101481.05
2018-06-02T20:05:55.961Z,101543.00
2018-06-02T20:08:23.458Z,101591.76
2018-06-02T20:10:50.978Z,101669.97
2018-06-02T20:13:18.899Z,101653.72
2018-06-02T20:16:19.577Z,97820.27
2018-06-02T20:18:48.078Z,97826.36
2018-06-02T20:21:16.577Z,97813.17
2018-06-02T20:23:45.066Z,97786.79
2018-06-02T20:26:13.567Z,97767.51
2018-06-02T20:28:42.077Z,97756.35
2018-06-02T20:31:11.025Z,97766.49
2018-06-02T20:33:39.548Z,97750.27
2018-06-02T20:36:08.062Z,97700.55
2018-06-02T20:38:36.614Z,97681.27
2018-06-02T20:41:05.110Z,97678.22
2018-06-02T20:43:33.675Z,97659.96
2018-06-02T20:46:02.405Z,97703.59
2018-06-02T20:48:30.913Z,97706.63
2018-06-02T20:50:59.397Z,97743.16
2018-06-02T20:53:28.342Z,97735.04
2018-06-02T20:55:57.134Z,97787.80
2018-06-02T20:58:25.670Z,97756.35
2018-06-02T21:00:54.162Z,97725.91
2018-06-02T21:03:22.771Z,97774.61
2018-06-02T21:05:51.269Z,97774.61
2018-06-02T21:08:19.761Z,97800.99
2018-06-02T21:10:48.265Z,97783.75
2018-06-02T21:13:16.744Z,97776.64
2018-06-02T21:15:45.490Z,97779.69
2018-06-02T21:18:13.949Z,97769.54
2018-06-02T21:20:42.444Z,97796.94
2018-06-02T21:23:11.171Z,97796.94
2018-06-02T21:25:39.667Z,97784.76
2018-06-02T21:28:08.287Z,97814.19
2018-06-02T21:30:36.898Z,97792.88
2018-06-02T21:33:05.420Z,97757.36
2018-06-02T21:35:34.022Z,97781.71
2018-06-02T21:38:02.533Z,97829.41
2018-06-02T21:40:31.246Z,97802.01
2018-06-02T21:42:59.735Z,97786.79
2018-06-02T21:45:28.241Z,97815.20
2018-06-02T21:47:57.139Z,97832.45
2018-06-02T21:50:25.710Z,97890.28
2018-06-02T21:52:54.194Z,97898.41
2018-06-02T21:55:23.055Z,97927.83
2018-06-02T21:57:51.534Z,97932.90
2018-06-02T22:00:20.065Z,97957.25
2018-06-02T22:02:48.549Z,97949.13
2018-06-02T22:05:17.027Z,98016.11
2018-06-02T22:07:45.582Z,97996.83
2018-06-02T22:10:14.075Z,98021.17
2018-06-02T22:12:43.114Z,98027.27
2018-06-02T22:15:12.006Z,98024.22
2018-06-02T22:17:40.480Z,98052.64
2018-06-02T22:20:08.977Z,98043.50
2018-06-02T22:22:37.497Z,98057.70
2018-06-02T22:25:05.998Z,98067.86
2018-06-02T22:27:34.460Z,98076.98
2018-06-02T22:30:02.993Z,98068.88
2018-06-02T22:32:31.510Z,98109.46
2018-06-02T22:35:00.030Z,98127.73
2018-06-02T22:37:28.677Z,98086.13
2018-06-02T22:39:57.170Z,98099.31
2018-06-02T22:42:25.674Z,98143.96
2018-06-02T22:44:54.166Z,98169.33
2018-06-02T22:47:22.688Z,98197.74
2018-06-02T22:49:51.283Z,98109.46
2018-06-02T22:52:19.787Z,98119.61
2018-06-02T22:54:48.404Z,98122.66
2018-06-02T22:57:17.061Z,98179.48
2018-06-02T22:59:45.627Z,98161.21
2018-06-02T23:02:14.551Z,98155.13
2018-06-02T23:04:43.349Z,98133.81
2018-06-02T23:07:12.045Z,98134.83
2018-06-02T23:09:40.552Z,98139.91
2018-06-02T23:12:09.026Z,98152.08
2018-06-02T23:14:37.521Z,98132.80
2018-06-02T23:17:06.078Z,98127.73
2018-06-02T23:19:34.646Z,98120.63
2018-06-02T23:22:03.317Z,98115.55
2018-06-02T23:24:31.812Z,98104.39
2018-06-02T23:27:00.304Z,98127.73
2018-06-02T23:29:28.832Z,98088.15
2018-06-02T23:31:57.367Z,98092.20
2018-06-02T23:34:25.857Z,98080.03
2018-06-02T23:36:54.338Z,98087.14
2018-06-02T23:39:22.851Z,98109.46
2018-06-02T23:41:51.339Z,98089.16
2018-06-02T23:44:19.820Z,98072.93
2018-06-02T23:46:48.304Z,98115.55
2018-06-02T23:49:16.783Z,98144.98
2018-06-02T23:51:45.269Z,98090.18
2018-06-02T23:54:13.827Z,98093.22
2018-06-02T23:56:42.338Z,98135.84
2018-06-02T23:59:10.906Z,98114.53
